createdAt,value
2022-12-12T00:04:10.157Z,23.7
2022-12-12T00:09:11.774Z,23.8
2022-12-12T00:14:13.519Z,23.8
2022-12-12T00:19:15.328Z,23.8
2022-12-12T00:24:16.919Z,23.9
2022-12-12T00:29:18.483Z,23.9
2022-12-12T00:34:20.069Z,23.9
2022-12-12T00:39:21.863Z,23.9
2022-12-12T00:44:23.435Z,23.9
2022-12-12T00:49:25.205Z,24
2022-12-12T00:54:26.753Z,24
2022-12-12T00:59:28.535Z,24
2022-12-12T01:04:30.095Z,24.1
2022-12-12T01:09:31.725Z,24.1
2022-12-12T01:14:33.275Z,24.1
2022-12-12T01:19:35.040Z,24.1
2022-12-12T01:24:36.614Z,24.1
2022-12-12T01:29:38.185Z,24.1
2022-12-12T01:34:39.755Z,24.2
2022-12-12T01:39:41.354Z,24.2
2022-12-12T01:44:43.145Z,24.2
2022-12-12T01:49:44.712Z,24.2
2022-12-12T01:54:46.281Z,24.3
2022-12-12T01:59:47.831Z,24.3
2022-12-12T02:04:49.380Z,24.3
2022-12-12T02:09:51.225Z,24.3
2022-12-12T02:14:52.764Z,24.3
2022-12-12T02:19:54.336Z,24.3
2022-12-12T02:24:56.173Z,24.3
2022-12-12T02:29:57.715Z,24.4
2022-12-12T02:34:59.510Z,24.4
2022-12-12T02:40:01.088Z,24.4
2022-12-12T02:45:02.641Z,24.4
2022-12-12T02:50:04.428Z,24.4
2022-12-12T02:55:06.235Z,24.4
2022-12-12T03:00:08.001Z,24.4
2022-12-12T03:05:09.901Z,24.4
2022-12-12T03:10:11.799Z,24.4
2022-12-12T03:15:13.636Z,24.5
2022-12-12T03:20:15.315Z,24.5
2022-12-12T03:25:17.165Z,24.5
2022-12-12T03:30:18.956Z,24.5
2022-12-12T03:35:20.737Z,24.5
2022-12-12T03:40:22.593Z,24.6
2022-12-12T03:45:24.191Z,24.6
2022-12-12T03:50:25.835Z,24.6
2022-12-12T03:55:27.659Z,24.6
2022-12-12T04:00:29.471Z,24.6
2022-12-12T04:05:31.043Z,24.6
2022-12-12T04:10:32.885Z,24.6
2022-12-12T04:15:34.429Z,24.6
2022-12-12T04:20:36.261Z,24.6
2022-12-12T04:25:37.852Z,24.6
2022-12-12T04:30:39.420Z,24.7
2022-12-12T04:35:40.971Z,24.7
2022-12-12T04:40:42.596Z,24.7
2022-12-12T04:45:44.366Z,24.7
2022-12-12T04:50:46.189Z,24.7
2022-12-12T04:55:47.757Z,24.7
2022-12-12T05:00:49.561Z,24.7
2022-12-12T05:05:51.162Z,24.7
2022-12-12T05:10:52.760Z,24.7
2022-12-12T05:15:54.553Z,24.7
2022-12-12T05:20:56.125Z,24.7
2022-12-12T05:25:57.716Z,24.7
2022-12-12T05:30:59.315Z,24.7
2022-12-12T05:36:00.970Z,24.8
2022-12-12T05:41:02.558Z,24.8
2022-12-12T05:46:04.151Z,24.8
2022-12-12T05:51:05.800Z,24.8
2022-12-12T05:56:07.630Z,24.8
2022-12-12T06:01:09.178Z,24.8
2022-12-12T06:06:10.753Z,24.8
2022-12-12T06:11:12.566Z,24.9
2022-12-12T06:16:14.211Z,24.9
2022-12-12T06:21:15.839Z,24.9
2022-12-12T06:26:17.687Z,24.9
2022-12-12T06:31:19.345Z,24.9
2022-12-12T06:36:21.265Z,24.9
2022-12-12T06:41:23.183Z,24.9
2022-12-12T06:46:25.069Z,24.9
2022-12-12T06:51:26.657Z,24.9
2022-12-12T06:56:28.478Z,24.9
2022-12-12T07:01:30.389Z,24.9
2022-12-12T07:06:31.994Z,24.9
2022-12-12T07:11:33.763Z,24.9
2022-12-12T07:16:35.281Z,24.9
2022-12-12T07:21:36.800Z,24.9
2022-12-12T07:26:38.330Z,24.9
2022-12-12T07:31:39.907Z,24.9
2022-12-12T07:36:41.551Z,24.9
2022-12-12T07:41:43.382Z,25
2022-12-12T07:56:58.143Z,25
2022-12-12T08:01:59.815Z,25
2022-12-12T08:07:05.505Z,25
2022-12-12T08:12:09.693Z,25
2022-12-12T08:17:11.356Z,25
2022-12-12T08:22:13.004Z,25
2022-12-12T08:27:15.885Z,25
2022-12-12T08:32:17.975Z,25
2022-12-12T08:42:26.019Z,25
2022-12-12T08:47:27.833Z,25.1
2022-12-12T08:52:29.627Z,25.1
2022-12-12T08:57:31.178Z,25.1
2022-12-12T09:02:32.923Z,25.1
2022-12-12T09:07:34.598Z,25.1
2022-12-12T09:12:41.377Z,25.1
2022-12-12T09:17:43.221Z,25.1
2022-12-12T09:22:44.784Z,25.1
2022-12-12T09:27:46.529Z,25.1
2022-12-12T09:32:48.136Z,25.1
2022-12-12T09:37:49.719Z,25.1
2022-12-12T09:42:51.258Z,25.1
2022-12-12T09:47:52.839Z,25.1
2022-12-12T09:52:54.395Z,25.1
2022-12-12T09:57:55.936Z,25.1
2022-12-12T10:02:57.543Z,25.1
2022-12-12T10:07:59.122Z,25.1
2022-12-12T10:13:00.902Z,25.1
2022-12-12T10:18:02.720Z,25.1
2022-12-12T10:23:04.304Z,25.1
2022-12-12T10:28:05.867Z,25.1
2022-12-12T10:33:07.805Z,25.1
2022-12-12T10:48:24.559Z,25.1
2022-12-12T10:53:26.447Z,25.1
2022-12-12T10:58:28.049Z,25.1
2022-12-12T11:03:30.028Z,25.1
2022-12-12T11:08:31.763Z,25.1
2022-12-12T11:13:33.607Z,25.1
2022-12-12T11:18:35.657Z,25.1
2022-12-12T11:23:38.559Z,25.1
2022-12-12T11:28:40.148Z,25.1
2022-12-12T11:33:45.155Z,25.1
2022-12-12T11:38:46.954Z,25.1
2022-12-12T11:43:49.013Z,25.1
2022-12-12T11:48:51.049Z,25.2
2022-12-12T11:53:52.898Z,25.2
2022-12-12T12:04:01.091Z,25.1
2022-12-12T12:09:02.954Z,25.2
2022-12-12T12:14:05.132Z,25.2
2022-12-12T12:19:07.260Z,25.2
2022-12-12T12:29:15.476Z,25.2
2022-12-12T12:34:17.676Z,25.2
2022-12-12T12:39:19.502Z,25.2
2022-12-12T12:44:21.105Z,25.2
2022-12-12T12:49:22.719Z,25.2
2022-12-12T12:54:24.571Z,25.2
2022-12-12T12:59:26.429Z,25.2
2022-12-12T13:04:28.292Z,25.2
2022-12-12T13:09:29.902Z,25.2
2022-12-12T13:14:31.688Z,25.2
2022-12-12T13:19:33.574Z,25.2
2022-12-12T13:24:35.406Z,25.2
2022-12-12T13:29:37.192Z,25.2
2022-12-12T13:34:39.044Z,25.2
2022-12-12T13:39:40.877Z,25.2
2022-12-12T13:44:42.665Z,25.2
2022-12-12T13:49:44.413Z,25.2
2022-12-12T13:54:46.099Z,25.2
2022-12-12T13:59:47.693Z,25.2
2022-12-12T14:04:49.296Z,25.2
2022-12-12T14:09:50.906Z,25.2
2022-12-12T14:14:52.462Z,25.2
2022-12-12T14:19:54.444Z,25.2
2022-12-12T14:24:56.050Z,25.2
2022-12-12T14:29:57.664Z,25.2
2022-12-12T14:34:59.387Z,25.2
2022-12-12T14:40:00.980Z,25.2
2022-12-12T14:45:02.969Z,25.2
2022-12-12T14:50:04.660Z,25.2
2022-12-12T14:55:06.281Z,25.2
2022-12-12T15:00:07.913Z,25.2
2022-12-12T15:05:09.532Z,25.2
2022-12-12T15:10:13.705Z,25.2
2022-12-12T15:15:15.622Z,25.2
2022-12-12T15:20:17.600Z,25.2
2022-12-12T15:25:19.244Z,25.2
2022-12-12T15:30:20.808Z,25.2
2022-12-12T15:35:22.432Z,25.2
2022-12-12T15:40:24.010Z,25.2
2022-12-12T15:45:25.608Z,25.1
2022-12-12T15:50:27.192Z,25.1
2022-12-12T15:55:28.782Z,25.1
2022-12-12T16:00:30.416Z,25.1
2022-12-12T16:05:32.039Z,25.1
2022-12-12T16:10:33.835Z,25.1
2022-12-12T16:15:35.671Z,25.1
2022-12-12T16:20:37.534Z,25
2022-12-12T16:25:39.425Z,25
2022-12-12T16:30:41.234Z,25
2022-12-12T16:35:43.106Z,25
2022-12-12T16:40:44.952Z,25
2022-12-12T16:45:46.868Z,25
2022-12-12T16:50:48.627Z,25
2022-12-12T16:55:50.458Z,25
2022-12-12T17:00:52.743Z,25
2022-12-12T17:05:54.540Z,25
2022-12-12T17:11:09.228Z,25
2022-12-12T17:16:12.054Z,25
2022-12-12T17:21:13.855Z,26.8
2022-12-12T17:26:15.551Z,30.6
2022-12-12T17:31:17.365Z,33.4
2022-12-12T17:36:17.598Z,36.1
2022-12-12T17:41:17.875Z,38.9
2022-12-12T17:46:18.278Z,40.7
2022-12-12T17:51:18.686Z,41.4
2022-12-12T17:56:19.374Z,42.1
2022-12-12T18:01:19.848Z,43.4
2022-12-12T18:06:20.326Z,43.7
2022-12-12T18:11:21.074Z,43.7
2022-12-12T18:16:21.865Z,43.7
2022-12-12T18:21:58.874Z,43.7
2022-12-12T18:27:00.034Z,43.7
2022-12-12T18:32:00.555Z,43.7
2022-12-12T18:37:01.474Z,43.6
2022-12-12T18:42:02.159Z,43.6
2022-12-12T18:47:02.839Z,44.2
2022-12-12T18:52:03.560Z,45
2022-12-12T18:57:04.277Z,45.1
2022-12-12T19:02:05.075Z,45.1
2022-12-12T19:07:05.576Z,45.1
2022-12-12T19:12:06.311Z,45
2022-12-12T19:17:07.369Z,45
2022-12-12T19:22:18.669Z,44.9
2022-12-12T19:27:25.337Z,44.9
2022-12-12T19:32:26.047Z,44.9
2022-12-12T19:37:26.772Z,44.9
2022-12-12T19:42:27.485Z,44.8
2022-12-12T19:47:28.244Z,44.8
2022-12-12T19:52:28.952Z,44.7
2022-12-12T19:57:29.648Z,44.7
2022-12-12T20:02:30.251Z,44.7
2022-12-12T20:07:30.991Z,44.7
2022-12-12T20:12:31.703Z,44.6
2022-12-12T20:17:32.274Z,44.6
2022-12-12T20:22:32.767Z,44.6
2022-12-12T20:27:33.514Z,44.5
2022-12-12T20:32:34.069Z,44.5
2022-12-12T20:37:34.798Z,44.4
2022-12-12T20:42:35.489Z,44.4
2022-12-12T20:47:36.225Z,44.4
2022-12-12T20:52:36.914Z,44.2
2022-12-12T20:57:37.592Z,43.1
2022-12-12T21:02:38.362Z,42.7
2022-12-12T21:07:38.820Z,42.6
2022-12-12T21:12:39.465Z,42.6
2022-12-12T21:17:39.872Z,42.5
2022-12-12T21:22:40.288Z,42.4
2022-12-12T21:27:40.779Z,42.3
2022-12-12T21:32:41.475Z,42.2
2022-12-12T21:37:42.112Z,42.2
2022-12-12T21:42:42.555Z,42.1
2022-12-12T21:47:42.955Z,42.1
2022-12-12T21:52:43.609Z,42
2022-12-12T21:57:43.997Z,41.9
2022-12-12T22:02:48.384Z,41.8
2022-12-12T22:07:50.248Z,41.7
2022-12-12T22:12:56.889Z,41.7
2022-12-12T22:17:57.858Z,41.4
2022-12-12T22:22:58.233Z,41.2
2022-12-12T22:27:58.854Z,41.2
2022-12-12T22:32:59.212Z,41.1
2022-12-12T22:37:59.845Z,41.1
2022-12-12T22:43:00.469Z,41
2022-12-12T22:48:01.090Z,40.9
2022-12-12T22:53:01.756Z,40.8
2022-12-12T22:58:02.174Z,40.8
2022-12-12T23:03:02.543Z,40.7
2022-12-12T23:08:03.232Z,40.6
2022-12-12T23:13:03.706Z,40.6
2022-12-12T23:18:04.131Z,40.5
2022-12-12T23:23:04.521Z,40.4
2022-12-12T23:28:06.258Z,40.4
2022-12-12T23:33:08.574Z,40.3
2022-12-12T23:38:08.970Z,40.2
2022-12-12T23:43:09.561Z,40.2
2022-12-12T23:48:09.918Z,40.1
2022-12-12T23:53:10.720Z,40.1
2022-12-12T23:58:11.187Z,40
